Accueil
METAR-TAF:

METAR-TAF

Aéroports :

Aéroport international de Nouakchott-Oumtounsy

Nouakchott, Mauritanie

latitude: 18-18-36N, longitude: 015-58-11W, altitude: 3 m

Observation

Le bulletin a été fait il y a 45 minutes, à 18:00 UTC
Vent 15 kt de nord-ouest
Température 29°C
Humidité 45%
Pression 1009 hPa
Visibilité: 4500 m
Chasse-poussière élevée,

METAR: GQNO 201800Z 32015KT 4500 BLDU NSC 29/16 Q1009 NOSIG

Heure: 18:45 (18:45 UTC)

Prévision

Le bulletin a été fait il y a 1 heure et 45 minutes, à 17:00 UTC
Prévision valable du 20 à 18 UTC au 21 à 24 UTC
Vent 14 kt de nord-ouest
Visibilité: 4000 m
Chasse-poussière élevée
Evoluant progressivement
du 20 à 19 UTC au 20 à 21 UTC
Visibilité: 6000 m

TAF: GQNO 201700Z 2018/2124 32014KT 4000 BLDU NSC BECMG 2019/2021 6000 NSW

Observations et prévisions météorologiques de plus de 4000 aéroports (messages METAR et TAF).

Les stations disponibles sont représentées par des disques jaunes et rouges sur la carte.

Passer la souris dessus pour voir le nom de la station.

Cliquer dessus pour voir les observations et prévisions météorologiques.

Pour changer de carte: cliquez sur les boutons verts avec une croix noire pour zoomer, sur le bouton vert avec un tiret pour effectuer un zoom arrière, ou sur les flèches vertes pour les cartes adjacentes.


METAR-TAF: